Time;durP1;ratioP1;P1;durP2;ratioP2;P2;SDS_P1;SDS_P2;PMS_P1;PMS_P2;Temp;Humidity;BMP_temperature;BMP_pressure;BME280_temperature;BME280_humidity;BME280_pressure;Samples;Min_cycle;Max_cycle;Signal;HPM_P1;HPM_P2
2020/12/20 00:00:34;;;;;;;17.83;10.27;;;;;;;10.05;52.55;96915.63;5111624;28;20434;-72
2020/12/20 00:03:00;;;;;;;13.83;9.70;;;;;;;9.95;52.57;96914.91;5077246;28;20434;-72
2020/12/20 00:05:26;;;;;;;16.13;9.47;;;;;;;9.98;52.60;96907.56;5112029;28;20439;-72
2020/12/20 00:07:52;;;;;;;12.90;10.13;;;;;;;10.04;53.12;96908.75;5103656;28;20183;-72
2020/12/20 00:10:19;;;;;;;14.10;10.70;;;;;;;9.96;53.10;96909.50;5112486;28;20945;-72
2020/12/20 00:12:45;;;;;;;15.43;11.27;;;;;;;9.99;52.64;96908.41;5110987;28;20461;-73
2020/12/20 00:15:12;;;;;;;16.37;10.27;;;;;;;9.95;52.74;96902.66;5103901;28;20415;-71
2020/12/20 00:17:37;;;;;;;15.60;10.23;;;;;;;9.93;52.95;96904.59;5111414;28;20426;-71
2020/12/20 00:20:05;;;;;;;14.73;10.10;;;;;;;9.94;52.38;96906.25;5094230;28;20415;-71
2020/12/20 00:22:31;;;;;;;14.30;10.80;;;;;;;9.95;52.73;96912.28;5112108;28;20299;-72
2020/12/20 00:24:56;;;;;;;14.00;9.70;;;;;;;9.95;52.78;96900.03;5111718;28;20423;-72
2020/12/20 00:27:24;;;;;;;15.20;10.77;;;;;;;9.92;52.06;96902.13;5076630;28;20740;-73
2020/12/20 00:29:49;;;;;;;13.57;10.23;;;;;;;9.83;52.48;96899.47;5111457;28;20185;-73
2020/12/20 00:32:15;;;;;;;13.77;9.60;;;;;;;9.78;52.55;96896.50;5076248;28;20450;-72
2020/12/20 00:34:42;;;;;;;13.47;9.40;;;;;;;9.63;52.58;96898.06;5110951;28;20177;-71
2020/12/20 00:37:08;;;;;;;14.83;8.93;;;;;;;9.68;52.33;96901.00;5111536;28;20200;-71
2020/12/20 00:39:35;;;;;;;12.63;9.30;;;;;;;9.72;52.45;96898.91;5093522;28;20824;-71
2020/12/20 00:42:02;;;;;;;13.70;9.60;;;;;;;9.62;52.68;96905.06;5112002;28;20495;-72
2020/12/20 00:44:28;;;;;;;12.63;9.60;;;;;;;9.72;52.52;96901.53;5112042;28;20438;-72
2020/12/20 00:46:55;;;;;;;11.37;9.50;;;;;;;9.76;52.86;96902.88;5114557;28;20982;-71
2020/12/20 00:49:26;;;;;;;11.63;9.50;;;;;;;9.67;52.49;96908.06;5114640;28;20426;-74
2020/12/20 00:51:52;;;;;;;16.10;10.20;;;;;;;9.79;52.49;96902.56;5097671;28;20767;-73
2020/12/20 00:54:18;;;;;;;13.00;9.30;;;;;;;9.86;52.63;96903.56;5114801;28;20411;-73
2020/12/20 00:56:45;;;;;;;12.80;9.30;;;;;;;9.92;52.17;96902.97;5115542;28;20443;-72
2020/12/20 00:59:12;;;;;;;14.47;10.40;;;;;;;9.96;52.50;96898.22;5097412;28;20179;-70
2020/12/20 01:01:38;;;;;;;13.97;9.50;;;;;;;9.94;52.68;96894.94;5115771;28;20449;-72
2020/12/20 01:04:03;;;;;;;17.13;10.63;;;;;;;9.97;52.78;96889.41;5115047;28;20446;-71
2020/12/20 01:06:29;;;;;;;13.97;9.70;;;;;;;10.02;52.57;96894.16;5114770;28;20742;-73
2020/12/20 01:08:55;;;;;;;13.90;9.40;;;;;;;10.06;52.35;96893.69;5087903;28;20450;-72
2020/12/20 01:11:21;;;;;;;14.13;9.80;;;;;;;10.11;52.81;96887.97;5097191;28;20424;-72
2020/12/20 01:13:49;;;;;;;14.00;10.07;;;;;;;10.11;53.04;96886.19;5114236;28;20236;-73
2020/12/20 01:16:33;;;;;;;13.20;9.90;;;;;;;10.10;52.96;96891.56;5096810;28;20482;-73
2020/12/20 01:18:59;;;;;;;14.23;9.60;;;;;;;10.11;52.99;96886.19;5115192;28;20423;-72
2020/12/20 01:21:25;;;;;;;11.20;8.83;;;;;;;10.12;53.19;96884.38;5115345;28;20423;-72
2020/12/20 01:23:51;;;;;;;13.10;9.50;;;;;;;10.14;53.16;96891.09;5115104;28;20868;-73
2020/12/20 01:26:16;;;;;;;14.20;9.83;;;;;;;10.19;52.64;96898.50;5114113;28;20521;-71
2020/12/20 01:28:43;;;;;;;11.97;9.30;;;;;;;10.22;52.65;96890.31;5106893;28;20266;-73
2020/12/20 01:31:11;;;;;;;12.70;9.40;;;;;;;10.23;52.90;96894.59;5114442;28;20181;-73
2020/12/20 01:33:38;;;;;;;14.60;9.43;;;;;;;10.17;52.70;96891.78;5114849;28;20454;-73
2020/12/20 01:36:09;;;;;;;16.20;9.40;;;;;;;10.19;53.02;96903.75;5114734;28;20449;-71
2020/12/20 01:38:35;;;;;;;11.87;8.50;;;;;;;10.26;52.71;96896.09;5114543;28;20419;-71
2020/12/20 01:41:01;;;;;;;12.87;8.70;;;;;;;10.17;53.15;96905.69;5096369;28;20430;-72
2020/12/20 01:43:39;;;;;;;10.73;7.93;;;;;;;10.25;52.62;96900.50;5114232;28;20413;-71
2020/12/20 01:46:08;;;;;;;14.27;9.37;;;;;;;10.24;53.07;96901.47;5113088;28;20937;-72
2020/12/20 01:48:33;;;;;;;12.00;8.57;;;;;;;10.30;52.80;96907.88;5114455;28;20458;-71
2020/12/20 01:50:59;;;;;;;9.50;7.93;;;;;;;10.27;52.50;96901.16;5096839;28;20801;-72
2020/12/20 01:53:25;;;;;;;12.70;7.83;;;;;;;10.32;52.50;96902.50;5114565;28;20197;-72
2020/12/20 01:55:58;;;;;;;11.37;7.87;;;;;;;10.34;52.55;96896.09;5114323;28;20213;-72
2020/12/20 01:58:25;;;;;;;11.20;8.10;;;;;;;10.34;52.58;96887.41;5113142;28;20238;-71
2020/12/20 02:00:52;;;;;;;9.30;7.70;;;;;;;10.32;52.55;96892.81;5113247;28;20808;-73
2020/12/20 02:03:18;;;;;;;9.60;8.00;;;;;;;10.35;52.63;96887.28;5113490;28;20430;-72
2020/12/20 02:05:43;;;;;;;9.70;6.87;;;;;;;10.35;52.74;96881.19;5113473;28;20470;-72
2020/12/20 02:08:10;;;;;;;13.53;8.07;;;;;;;10.38;52.76;96881.75;5096568;28;20180;-72
2020/12/20 02:10:36;;;;;;;9.30;7.50;;;;;;;10.35;53.13;96881.19;5112850;28;20592;-71
2020/12/20 02:13:02;;;;;;;10.43;7.47;;;;;;;10.34;52.81;96874.31;5114244;28;20568;-72
2020/12/20 02:15:28;;;;;;;10.90;7.40;;;;;;;10.26;53.30;96885.63;5114210;28;20236;-71
2020/12/20 02:17:54;;;;;;;10.17;7.60;;;;;;;10.36;52.94;96877.59;5113771;28;20507;-72
2020/12/20 02:20:19;;;;;;;11.20;7.30;;;;;;;10.25;53.55;96871.69;5113018;28;20180;-71
2020/12/20 02:22:45;;;;;;;9.23;6.83;;;;;;;10.33;53.44;96872.69;5113996;28;20181;-71
2020/12/20 02:25:12;;;;;;;10.97;8.33;;;;;;;10.23;53.45;96873.63;5113352;27;20185;-72
2020/12/20 02:27:37;;;;;;;12.43;8.33;;;;;;;10.22;53.64;96879.84;5108068;28;20604;-71
2020/12/20 02:30:04;;;;;;;10.97;8.47;;;;;;;10.15;53.72;96877.03;5113974;28;20522;-72
2020/12/20 02:32:30;;;;;;;11.40;8.23;;;;;;;9.99;54.42;96875.19;5113916;28;20699;-72
2020/12/20 02:34:56;;;;;;;11.03;8.33;;;;;;;10.03;54.76;96875.69;5103275;28;20430;-72
2020/12/20 02:37:21;;;;;;;12.97;7.63;;;;;;;9.97;54.34;96874.50;5112295;28;20193;-72
2020/12/20 02:39:47;;;;;;;11.13;8.30;;;;;;;10.09;53.69;96872.44;5107912;28;20176;-71
2020/12/20 02:42:13;;;;;;;10.70;8.73;;;;;;;10.11;53.57;96869.66;5114709;28;20237;-71
2020/12/20 02:44:39;;;;;;;14.50;8.93;;;;;;;10.03;53.35;96878.28;5115008;28;20446;-71
2020/12/20 02:47:05;;;;;;;11.20;8.37;;;;;;;9.90;53.06;96870.88;5113019;28;20212;-71
2020/12/20 02:49:31;;;;;;;13.67;9.60;;;;;;;9.77;52.74;96873.91;5113858;28;20275;-71
2020/12/20 02:51:56;;;;;;;12.37;8.50;;;;;;;9.78;53.15;96879.97;5095443;28;20423;-71
2020/12/20 02:54:22;;;;;;;12.90;9.50;;;;;;;9.79;53.13;96876.38;5111716;28;20277;-70
2020/12/20 02:56:48;;;;;;;11.90;7.90;;;;;;;9.50;53.58;96872.28;5112083;28;20204;-72
2020/12/20 02:59:13;;;;;;;12.73;8.80;;;;;;;9.75;53.16;96870.66;5112931;28;20210;-71
2020/12/20 03:01:39;;;;;;;12.57;9.20;;;;;;;9.68;53.08;96867.00;5112034;28;20183;-71
2020/12/20 03:04:05;;;;;;;11.97;8.47;;;;;;;9.64;53.63;96873.53;5108454;28;20246;-72
2020/12/20 03:06:30;;;;;;;12.03;9.50;;;;;;;9.60;53.37;96878.22;5105695;28;20651;-71
2020/12/20 03:08:57;;;;;;;12.83;9.47;;;;;;;9.71;53.73;96876.31;5110019;28;20177;-71
2020/12/20 03:11:22;;;;;;;13.23;8.93;;;;;;;9.71;53.26;96874.53;5095193;28;20181;-73
2020/12/20 03:13:48;;;;;;;12.00;9.10;;;;;;;9.67;53.51;96871.41;5113048;28;20907;-71
2020/12/20 03:16:14;;;;;;;14.23;9.00;;;;;;;9.54;53.62;96876.25;5112115;28;20200;-72
2020/12/20 03:18:40;;;;;;;12.30;9.27;;;;;;;9.63;53.50;96870.06;5111772;28;20242;-72
2020/12/20 03:21:05;;;;;;;13.13;8.50;;;;;;;9.55;53.86;96875.28;5111552;28;20189;-73
2020/12/20 03:23:31;;;;;;;13.00;8.90;;;;;;;9.66;53.51;96877.63;5112280;28;20427;-71
2020/12/20 03:25:57;;;;;;;12.83;9.10;;;;;;;9.49;54.05;96875.88;5110874;28;20237;-71
2020/12/20 03:28:23;;;;;;;12.17;10.07;;;;;;;9.57;54.17;96878.56;5109317;28;20647;-72
2020/12/20 03:30:48;;;;;;;14.17;9.40;;;;;;;9.53;53.64;96874.59;5112895;28;20208;-73
2020/12/20 03:33:14;;;;;;;12.13;9.33;;;;;;;9.52;54.38;96875.56;5111734;28;20219;-72
2020/12/20 03:35:40;;;;;;;11.67;9.17;;;;;;;9.61;53.88;96869.41;5104322;28;20205;-71
2020/12/20 03:38:05;;;;;;;13.53;9.10;;;;;;;9.59;54.22;96868.72;5108832;28;20188;-70
2020/12/20 03:40:31;;;;;;;11.37;9.03;;;;;;;9.51;54.14;96869.50;5113082;28;20213;-72
2020/12/20 03:42:57;;;;;;;23.90;9.30;;;;;;;9.48;54.31;96869.00;5112283;28;20185;-70
2020/12/20 03:45:23;;;;;;;15.10;9.03;;;;;;;9.40;54.92;96866.34;5113272;28;20184;-71
2020/12/20 03:47:48;;;;;;;13.67;9.20;;;;;;;9.49;54.52;96860.19;5113361;28;20431;-71
2020/12/20 03:50:15;;;;;;;12.87;9.50;;;;;;;9.53;54.54;96867.56;5111835;28;20348;-71
2020/12/20 03:52:40;;;;;;;12.20;9.53;;;;;;;9.54;54.89;96868.41;5106419;28;20699;-70
2020/12/20 03:55:06;;;;;;;21.40;9.50;;;;;;;9.58;54.41;96866.28;5087919;28;20423;-71
2020/12/20 03:57:32;;;;;;;19.17;9.00;;;;;;;9.57;54.66;96865.47;5115502;28;20295;-70
2020/12/20 03:59:58;;;;;;;11.80;9.10;;;;;;;9.55;55.07;96870.03;5114740;28;20206;-73
2020/12/20 04:02:24;;;;;;;14.23;9.13;;;;;;;9.57;54.49;96868.09;5096995;28;20177;-71
2020/12/20 04:04:50;;;;;;;12.40;8.83;;;;;;;9.58;54.77;96864.47;5105344;28;20430;-71
2020/12/20 04:07:15;;;;;;;12.23;9.17;;;;;;;9.51;55.25;96861.66;5112988;28;20273;-71
2020/12/20 04:09:42;;;;;;;12.63;8.80;;;;;;;9.53;54.94;96861.53;5094421;28;20181;-72
2020/12/20 04:12:08;;;;;;;10.50;8.57;;;;;;;9.57;54.81;96862.88;5113292;28;20184;-71
2020/12/20 04:14:34;;;;;;;14.70;9.13;;;;;;;9.63;54.98;96864.03;5113672;28;20765;-71
2020/12/20 04:16:59;;;;;;;10.67;8.13;;;;;;;9.66;54.42;96871.56;5113374;28;20257;-71
2020/12/20 04:19:25;;;;;;;12.30;8.70;;;;;;;9.65;54.60;96862.91;5111853;28;20196;-72
2020/12/20 04:21:51;;;;;;;10.23;7.80;;;;;;;9.56;54.91;96863.84;5110589;28;20177;-71
2020/12/20 04:24:17;;;;;;;11.33;8.50;;;;;;;9.62;54.23;96865.81;5112395;28;20566;-71
2020/12/20 04:26:43;;;;;;;12.90;8.90;;;;;;;9.63;54.18;96872.69;5107577;28;20212;-71
2020/12/20 04:29:09;;;;;;;11.93;8.63;;;;;;;9.64;54.51;96868.31;5111842;28;20419;-71
2020/12/20 04:31:35;;;;;;;10.77;8.80;;;;;;;9.45;55.38;96864.09;5111814;28;20452;-71
2020/12/20 04:34:01;;;;;;;11.23;8.37;;;;;;;9.51;55.08;96871.31;5102816;28;20455;-73
2020/12/20 04:36:27;;;;;;;9.63;8.30;;;;;;;9.60;55.01;96859.09;5105593;28;20228;-71
2020/12/20 04:38:54;;;;;;;11.83;8.70;;;;;;;9.62;54.84;96867.63;5108473;28;20267;-73
2020/12/20 04:41:21;;;;;;;13.53;8.50;;;;;;;9.63;54.96;96866.66;5111895;28;20524;-74
2020/12/20 04:43:48;;;;;;;9.47;8.03;;;;;;;9.63;54.91;96861.41;5084343;28;21019;-70
2020/12/20 04:46:17;;;;;;;12.03;8.50;;;;;;;9.70;54.59;96865.06;5111186;28;20909;-73
2020/12/20 04:48:43;;;;;;;12.30;8.33;;;;;;;9.65;55.05;96868.13;5111407;28;20419;-72
2020/12/20 04:51:09;;;;;;;13.53;8.20;;;;;;;9.65;54.70;96865.53;5110721;28;20427;-72
2020/12/20 04:53:35;;;;;;;10.50;8.00;;;;;;;9.71;54.52;96876.31;5088693;28;20868;-72
2020/12/20 04:56:05;;;;;;;10.07;7.93;;;;;;;9.70;55.26;96862.44;5104437;28;20488;-72
2020/12/20 04:58:30;;;;;;;10.33;8.33;;;;;;;9.72;55.13;96870.13;5072927;28;20217;-72
2020/12/20 05:00:57;;;;;;;15.50;8.40;;;;;;;9.77;55.07;96867.88;5091073;28;20451;-70
2020/12/20 05:03:23;;;;;;;11.57;8.07;;;;;;;9.81;54.72;96863.97;5090530;28;20166;-71
2020/12/20 05:05:49;;;;;;;12.30;8.20;;;;;;;9.80;54.54;96860.53;5091077;28;20965;-70
2020/12/20 05:08:15;;;;;;;11.30;8.70;;;;;;;9.77;54.32;96873.09;5091409;28;20186;-72
2020/12/20 05:10:41;;;;;;;12.73;8.53;;;;;;;9.83;54.41;96862.00;5090396;28;20190;-72
2020/12/20 05:13:07;;;;;;;15.10;9.00;;;;;;;9.76;54.42;96863.59;5089267;28;20985;-71
2020/12/20 05:15:33;;;;;;;11.40;8.57;;;;;;;9.82;54.26;96863.81;5088706;28;20288;-72
2020/12/20 05:18:13;;;;;;;13.37;8.63;;;;;;;9.83;54.60;96857.59;5092857;28;21134;-71
2020/12/20 05:20:43;;;;;;;12.60;8.40;;;;;;;9.83;54.27;96867.22;5091094;28;20847;-73
2020/12/20 05:23:10;;;;;;;11.97;8.83;;;;;;;9.85;54.44;96873.13;5091573;28;20513;-73
2020/12/20 05:25:37;;;;;;;15.50;7.70;;;;;;;9.82;54.95;96876.09;5087467;28;20549;-72
2020/12/20 05:28:14;;;;;;;14.10;9.27;;;;;;;9.77;54.85;96880.97;5094196;28;20420;-71
2020/12/20 05:30:41;;;;;;;9.87;8.03;;;;;;;9.79;54.57;96884.25;5099509;28;20480;-72
2020/12/20 05:33:08;;;;;;;9.93;8.30;;;;;;;9.79;54.27;96884.25;5091255;28;20462;-71
2020/12/20 05:35:35;;;;;;;13.90;8.40;;;;;;;9.78;54.21;96879.97;5094069;28;20466;-71
2020/12/20 05:38:01;;;;;;;14.27;9.10;;;;;;;9.75;54.26;96875.88;5094113;28;20459;-71
2020/12/20 05:40:30;;;;;;;12.33;8.57;;;;;;;9.64;54.42;96874.34;5093954;28;20415;-71
2020/12/20 05:43:08;;;;;;;11.27;7.53;;;;;;;9.49;54.44;96871.47;5092577;28;20419;-72
2020/12/20 05:45:35;;;;;;;10.63;8.03;;;;;;;9.50;54.03;96877.50;5100887;28;20746;-70
2020/12/20 05:48:30;;;;;;;10.30;8.57;;;;;;;9.35;53.72;96867.59;5076569;28;20434;-71
2020/12/20 05:50:58;;;;;;;13.90;7.73;;;;;;;9.25;53.82;96864.28;5090144;28;20428;-72
2020/12/20 05:53:31;;;;;;;15.23;9.37;;;;;;;9.11;54.15;96857.81;5050500;28;20468;-73
2020/12/20 05:55:59;;;;;;;24.60;8.90;;;;;;;9.09;54.38;96859.75;5075921;28;20448;-71
2020/12/20 05:58:29;;;;;;;19.50;8.83;;;;;;;9.16;54.17;96868.59;5114066;28;20794;-71
2020/12/20 06:00:56;;;;;;;16.43;8.80;;;;;;;9.07;54.16;96870.31;5094831;28;20492;-73
2020/12/20 06:03:22;;;;;;;14.73;9.17;;;;;;;9.08;54.21;96873.78;5114034;28;20419;-72
2020/12/20 06:05:48;;;;;;;10.03;7.50;;;;;;;9.13;54.22;96875.94;5114291;28;20450;-72
2020/12/20 06:08:19;;;;;;;12.57;8.80;;;;;;;9.18;53.89;96873.72;5114217;28;20834;-72
2020/12/20 06:10:54;;;;;;;16.93;8.47;;;;;;;9.06;53.73;96871.34;5114427;28;20419;-71
2020/12/20 06:13:21;;;;;;;10.57;8.20;;;;;;;9.03;54.06;96870.78;5095456;28;20446;-73
2020/12/20 06:15:55;;;;;;;11.90;9.67;;;;;;;9.07;54.13;96883.41;5112930;28;20442;-72
2020/12/20 06:18:24;;;;;;;10.80;8.67;;;;;;;8.91;54.25;96888.50;5099292;28;21155;-70
2020/12/20 06:20:52;;;;;;;11.17;8.40;;;;;;;8.87;54.13;96887.16;5093486;28;20451;-72
2020/12/20 06:23:20;;;;;;;12.43;9.20;;;;;;;8.90;55.14;96892.09;5078755;28;20415;-72
2020/12/20 06:25:47;;;;;;;12.97;7.83;;;;;;;8.99;55.03;96893.78;5090026;28;20447;-71
2020/12/20 06:28:24;;;;;;;11.03;8.80;;;;;;;8.84;55.23;96892.66;5095692;28;20494;-70
2020/12/20 06:30:51;;;;;;;11.27;8.57;;;;;;;8.98;55.22;96888.72;5093667;28;20419;-72
2020/12/20 06:33:35;;;;;;;13.53;8.77;;;;;;;9.03;54.70;96892.53;5105387;28;20451;-72
2020/12/20 06:36:02;;;;;;;12.13;9.40;;;;;;;8.98;54.97;96893.97;5093131;28;20538;-71
2020/12/20 06:38:27;;;;;;;14.90;9.47;;;;;;;8.79;55.86;96897.53;5113096;28;20445;-71
2020/12/20 06:40:53;;;;;;;11.80;8.83;;;;;;;8.88;55.56;96894.84;5078123;28;20434;-72
2020/12/20 06:43:35;;;;;;;10.97;8.90;;;;;;;8.97;55.03;96895.72;5112562;28;20181;-71
2020/12/20 06:46:01;;;;;;;10.17;8.57;;;;;;;8.98;55.52;96904.41;5095063;28;20197;-72
2020/12/20 06:48:38;;;;;;;13.60;9.23;;;;;;;8.95;55.54;96900.28;5096945;28;20432;-72
2020/12/20 06:51:05;;;;;;;10.33;8.50;;;;;;;9.06;55.26;96896.63;5092567;28;20458;-71
2020/12/20 06:53:46;;;;;;;10.80;8.80;;;;;;;9.02;55.48;96898.72;5084450;28;20461;-72
2020/12/20 06:56:24;;;;;;;12.00;8.90;;;;;;;8.98;55.38;96897.38;5096579;28;20529;-72
2020/12/20 06:58:52;;;;;;;14.00;9.10;;;;;;;8.95;55.28;96905.50;5112494;28;20426;-71
2020/12/20 07:01:47;;;;;;;15.67;9.00;;;;;;;9.00;54.44;96898.06;5112880;28;20415;-72
2020/12/20 07:04:16;;;;;;;12.00;8.90;;;;;;;8.96;54.27;96901.94;5010496;28;20513;-71
2020/12/20 07:07:06;;;;;;;13.63;8.60;;;;;;;8.99;55.19;96899.03;5026366;28;20526;-71
2020/12/20 07:09:32;;;;;;;11.60;8.80;;;;;;;8.89;55.45;96912.16;5011061;28;20430;-72
2020/12/20 07:11:58;;;;;;;13.30;8.70;;;;;;;8.93;54.76;96911.88;5028031;28;20468;-71
2020/12/20 07:14:24;;;;;;;11.43;8.97;;;;;;;8.93;54.86;96915.31;5029804;28;21044;-73
2020/12/20 07:16:50;;;;;;;14.20;9.57;;;;;;;8.98;54.91;96912.25;5029907;28;20298;-71
2020/12/20 07:19:34;;;;;;;10.57;8.97;;;;;;;8.87;55.10;96923.75;5029712;28;20184;-72
2020/12/20 07:22:00;;;;;;;10.30;8.43;;;;;;;8.90;55.21;96928.69;5013087;28;20857;-73
2020/12/20 07:24:28;;;;;;;12.67;8.67;;;;;;;9.00;55.18;96936.47;5048022;28;20472;-72
2020/12/20 07:27:00;;;;;;;11.47;8.80;;;;;;;8.90;56.07;96920.84;5049050;28;20219;-73
2020/12/20 07:29:30;;;;;;;11.53;8.60;;;;;;;8.99;54.98;96919.94;5032763;28;20421;-72
2020/12/20 07:31:56;;;;;;;11.63;9.07;;;;;;;9.07;55.71;96925.22;5049063;28;20961;-71
2020/12/20 07:34:25;;;;;;;13.40;9.67;;;;;;;9.17;54.94;96926.97;5027992;28;20968;-71
2020/12/20 07:36:52;;;;;;;13.40;9.20;;;;;;;9.22;55.55;96929.94;5045163;28;20453;-74
2020/12/20 07:39:18;;;;;;;14.17;8.93;;;;;;;9.24;55.21;96933.22;5029513;28;20473;-72
2020/12/20 07:41:44;;;;;;;12.23;8.80;;;;;;;9.29;55.07;96927.53;5110259;28;20462;-71
2020/12/20 07:44:11;;;;;;;15.17;9.67;;;;;;;9.25;54.96;96932.25;5112481;28;20181;-71
2020/12/20 07:46:37;;;;;;;13.20;8.90;;;;;;;9.27;54.91;96932.09;5111687;28;20266;-72
2020/12/20 07:49:10;;;;;;;14.77;10.70;;;;;;;9.33;55.29;96932.31;5110406;28;20426;-71
2020/12/20 07:51:37;;;;;;;13.53;9.27;;;;;;;9.38;55.08;96937.94;5112036;28;20414;-72
2020/12/20 07:54:08;;;;;;;11.47;9.00;;;;;;;9.46;55.17;96929.31;5112080;28;20455;-70
2020/12/20 07:56:34;;;;;;;11.73;9.00;;;;;;;9.51;54.77;96928.88;5112260;28;20437;-71
2020/12/20 07:59:02;;;;;;;11.73;8.20;;;;;;;9.56;54.48;96933.63;5093808;28;20429;-72
2020/12/20 08:01:28;;;;;;;12.77;9.00;;;;;;;9.58;54.86;96921.22;5106260;28;20447;-73
2020/12/20 08:04:08;;;;;;;12.10;9.30;;;;;;;9.63;54.43;96942.53;5110063;28;20418;-70
2020/12/20 08:06:35;;;;;;;11.33;8.80;;;;;;;9.67;54.33;96936.84;5101330;28;20935;-72
2020/12/20 08:09:09;;;;;;;17.63;9.70;;;;;;;9.73;54.81;96934.56;5110976;28;20442;-73
2020/12/20 08:11:36;;;;;;;13.53;9.27;;;;;;;9.71;54.39;96934.72;5111414;28;20410;-71
2020/12/20 08:14:09;;;;;;;26.43;9.23;;;;;;;9.80;54.16;96936.41;5111974;28;20462;-71
2020/12/20 08:16:40;;;;;;;15.60;9.50;;;;;;;9.86;54.08;96934.97;5111894;28;20952;-72
2020/12/20 08:19:14;;;;;;;12.33;9.07;;;;;;;9.87;54.32;96938.44;5112086;28;20476;-70
2020/12/20 08:21:49;;;;;;;14.97;9.83;;;;;;;9.86;54.29;96931.56;5103952;28;20931;-71
2020/12/20 08:24:15;;;;;;;12.87;8.97;;;;;;;9.93;54.20;96937.81;5096257;28;20411;-74
2020/12/20 08:26:41;;;;;;;13.83;9.70;;;;;;;9.83;54.00;96936.13;5110986;28;20533;-71
2020/12/20 08:29:08;;;;;;;12.43;9.20;;;;;;;9.82;54.47;96939.72;5092552;28;20647;-72
2020/12/20 08:31:34;;;;;;;13.73;9.50;;;;;;;9.93;54.14;96940.41;5111431;28;20426;-71
2020/12/20 08:34:01;;;;;;;15.73;9.60;;;;;;;9.98;53.76;96941.59;5111492;28;20544;-72
2020/12/20 08:36:27;;;;;;;18.90;8.60;;;;;;;9.90;54.19;96936.31;5087310;28;20446;-71
2020/12/20 08:38:54;;;;;;;13.30;9.67;;;;;;;9.92;53.64;96944.84;5111086;28;20467;-71
2020/12/20 08:41:21;;;;;;;12.07;8.73;;;;;;;9.90;53.87;96938.94;5111778;28;20427;-72
2020/12/20 08:43:47;;;;;;;17.87;8.77;;;;;;;9.86;54.16;96944.66;5110217;28;20509;-71
2020/12/20 08:46:30;;;;;;;13.33;9.03;;;;;;;9.99;53.49;96945.06;5110271;28;20986;-72
2020/12/20 08:49:27;;;;;;;16.73;9.37;;;;;;;10.05;53.54;96944.41;5111527;28;20181;-71
2020/12/20 08:51:53;;;;;;;15.93;9.70;;;;;;;10.14;53.44;96945.28;5111354;28;20433;-72
2020/12/20 08:54:27;;;;;;;20.07;9.80;;;;;;;10.16;52.95;96943.34;5111385;28;20767;-71
2020/12/20 08:56:53;;;;;;;15.10;10.17;;;;;;;10.18;53.32;96945.78;5111546;28;20443;-72
2020/12/20 08:59:33;;;;;;;12.90;9.43;;;;;;;10.20;53.00;96946.47;5111418;28;20517;-71
2020/12/20 09:01:59;;;;;;;10.67;8.90;;;;;;;10.09;53.26;96943.13;5110161;28;20426;-71
2020/12/20 09:04:26;;;;;;;13.87;9.13;;;;;;;10.18;52.69;96951.88;5086491;28;20409;-71
2020/12/20 09:07:00;;;;;;;14.87;9.63;;;;;;;10.15;52.77;96942.50;5107588;28;20447;-72
2020/12/20 09:09:26;;;;;;;13.40;9.93;;;;;;;10.34;52.68;96942.41;5096865;28;20426;-72
2020/12/20 09:11:52;;;;;;;9.37;8.37;;;;;;;10.43;52.35;96942.34;5114746;28;20422;-72
2020/12/20 09:14:18;;;;;;;12.77;9.63;;;;;;;10.50;52.15;96945.16;5115222;28;20493;-71
2020/12/20 09:16:44;;;;;;;16.40;9.37;;;;;;;10.42;52.17;96942.50;5115013;28;20572;-71
2020/12/20 09:19:14;;;;;;;13.47;9.57;;;;;;;10.35;52.72;96954.53;5107908;28;20253;-70
2020/12/20 09:21:41;;;;;;;18.73;9.73;;;;;;;10.52;52.58;96953.69;5105239;28;20420;-72
2020/12/20 09:24:06;;;;;;;18.80;10.10;;;;;;;10.75;51.91;96950.47;5114954;28;20534;-72
2020/12/20 09:26:32;;;;;;;17.40;11.00;;;;;;;10.82;51.37;96956.72;5096918;28;20972;-70
2020/12/20 09:29:06;;;;;;;16.87;10.43;;;;;;;11.03;51.15;96958.06;5114999;28;20188;-71
2020/12/20 09:31:31;;;;;;;15.10;10.33;;;;;;;10.85;51.50;96951.16;5097092;28;20208;-72
2020/12/20 09:34:00;;;;;;;15.97;10.10;;;;;;;10.84;51.74;96949.50;5115016;28;20450;-72
2020/12/20 09:36:26;;;;;;;17.13;10.73;;;;;;;10.74;52.37;96959.31;5102561;28;20280;-72
2020/12/20 09:38:54;;;;;;;14.00;9.97;;;;;;;10.67;52.15;96953.06;5111334;28;20423;-73
2020/12/20 09:41:24;;;;;;;15.60;10.30;;;;;;;10.75;52.37;96959.16;5094507;28;20437;-72
2020/12/20 09:43:51;;;;;;;17.20;9.50;;;;;;;11.13;51.31;96948.25;5114458;28;20418;-71
2020/12/20 09:46:19;;;;;;;14.87;9.43;;;;;;;11.25;51.33;96954.03;5114291;28;20806;-72
2020/12/20 09:48:46;;;;;;;12.30;8.73;;;;;;;11.38;51.08;96948.28;5114315;28;20431;-72
2020/12/20 09:51:11;;;;;;;14.70;10.40;;;;;;;11.43;50.81;96953.03;5114562;28;20839;-72
2020/12/20 09:53:37;;;;;;;10.53;8.73;;;;;;;11.52;50.95;96939.75;5113529;28;20490;-71
2020/12/20 09:56:03;;;;;;;13.00;9.30;;;;;;;11.46;51.02;96955.31;5114676;28;20223;-73
2020/12/20 09:58:29;;;;;;;14.80;10.17;;;;;;;11.28;51.85;96950.25;5111921;28;20177;-73
2020/12/20 10:00:55;;;;;;;13.57;10.30;;;;;;;11.36;51.47;96958.09;5113133;28;20179;-74
2020/12/20 10:03:20;;;;;;;15.70;9.70;;;;;;;11.48;51.31;96962.03;5114768;28;20438;-71
2020/12/20 10:05:46;;;;;;;12.50;9.93;;;;;;;11.43;51.73;96960.91;5103183;28;20213;-71
2020/12/20 10:08:16;;;;;;;11.97;9.40;;;;;;;11.60;51.23;96954.69;5101799;28;20545;-72
2020/12/20 10:10:42;;;;;;;11.80;9.70;;;;;;;11.67;51.12;96949.59;5111267;28;20268;-71
2020/12/20 10:13:08;;;;;;;13.83;9.20;;;;;;;11.71;50.99;96955.31;5114734;28;20451;-71
2020/12/20 10:15:34;;;;;;;15.97;9.83;;;;;;;11.88;50.95;96950.88;5112982;28;20415;-74
2020/12/20 10:18:03;;;;;;;12.53;10.13;;;;;;;11.98;50.52;96947.13;5113103;28;20419;-71
2020/12/20 10:20:31;;;;;;;11.17;9.43;;;;;;;12.05;50.45;96947.25;5112978;28;20184;-72
2020/12/20 10:22:58;;;;;;;12.60;9.83;;;;;;;12.13;50.41;96949.84;5106433;28;20415;-71
2020/12/20 10:25:24;;;;;;;18.90;10.60;;;;;;;12.14;50.36;96962.00;5114490;28;20422;-70
2020/12/20 10:27:53;;;;;;;14.60;9.97;;;;;;;12.17;50.18;96952.16;5108853;28;20435;-72
2020/12/20 10:30:18;;;;;;;20.60;10.50;;;;;;;12.28;50.52;96954.41;5114778;28;20688;-72
2020/12/20 10:32:44;;;;;;;11.60;9.40;;;;;;;12.39;50.25;96953.25;5114676;28;20486;-73
2020/12/20 10:35:10;;;;;;;13.40;8.93;;;;;;;12.50;50.66;96954.66;5100432;28;20181;-71
2020/12/20 10:37:35;;;;;;;14.47;10.40;;;;;;;12.55;50.64;96952.34;5112326;28;20243;-70
2020/12/20 10:40:02;;;;;;;12.40;10.03;;;;;;;12.65;50.31;96954.78;5111760;28;20181;-72
2020/12/20 10:42:28;;;;;;;21.70;9.57;;;;;;;12.56;50.54;96951.38;5114047;28;20173;-73
2020/12/20 10:44:54;;;;;;;16.40;8.63;;;;;;;12.59;50.44;96948.41;5114508;28;20484;-72
2020/12/20 10:47:22;;;;;;;19.70;8.80;;;;;;;12.69;50.51;96951.63;5114182;28;20213;-72
2020/12/20 10:49:48;;;;;;;13.27;9.47;;;;;;;12.80;50.58;96947.78;5113671;28;20184;-72
2020/12/20 10:52:14;;;;;;;12.37;8.00;;;;;;;12.86;49.86;96949.72;5112527;28;20422;-73
2020/12/20 10:54:39;;;;;;;10.40;7.03;;;;;;;12.97;49.78;96950.31;5113376;28;20208;-70
2020/12/20 10:57:05;;;;;;;8.30;6.80;;;;;;;13.11;49.49;96951.38;5094388;28;20196;-72
2020/12/20 10:59:32;;;;;;;9.00;6.47;;;;;;;13.19;48.53;96949.53;5112951;28;20181;-72
2020/12/20 11:01:58;;;;;;;7.43;5.80;;;;;;;13.34;48.71;96948.75;5110989;28;20184;-71
2020/12/20 11:04:24;;;;;;;10.63;5.53;;;;;;;13.49;47.68;96948.84;5101127;28;20927;-72
2020/12/20 11:06:57;;;;;;;5.33;4.63;;;;;;;13.49;46.98;96948.84;5107949;28;20478;-74
2020/12/20 11:09:23;;;;;;;15.33;4.87;;;;;;;13.47;46.70;96945.59;5112321;28;20522;-71
2020/12/20 11:11:49;;;;;;;10.13;4.77;;;;;;;13.74;46.19;96951.25;5101994;28;20416;-72
2020/12/20 11:14:15;;;;;;;4.67;4.10;;;;;;;13.90;46.15;96945.84;5112264;28;20479;-72
2020/12/20 11:16:41;;;;;;;9.53;4.43;;;;;;;14.11;45.71;96936.44;5112183;28;20458;-72
2020/12/20 11:19:06;;;;;;;5.83;4.17;;;;;;;14.22;45.13;96938.63;5112244;28;20666;-72
2020/12/20 11:21:32;;;;;;;11.73;4.60;;;;;;;14.27;45.04;96936.22;5112888;28;20188;-72
2020/12/20 11:23:59;;;;;;;5.20;4.27;;;;;;;14.42;44.48;96930.13;5112341;28;20173;-72
2020/12/20 11:26:25;;;;;;;7.90;4.13;;;;;;;14.56;44.37;96926.66;5112423;28;20220;-71
2020/12/20 11:28:52;;;;;;;9.50;4.80;;;;;;;14.48;44.61;96934.69;5111722;28;20433;-72
2020/12/20 11:31:23;;;;;;;6.83;4.30;;;;;;;14.56;44.62;96931.94;5094113;28;20437;-72